sensor_id;sensor_type;location;lat;lon;timestamp;P1;durP1;ratioP1;P2;durP2;ratioP2
18532;SDS011;9396;51.510;11.934;2022-07-23T00:01:03;7.33;;;3.93;;
18532;SDS011;9396;51.510;11.934;2022-07-23T00:03:32;6.00;;;3.93;;
18532;SDS011;9396;51.510;11.934;2022-07-23T00:05:58;5.77;;;4.20;;
18532;SDS011;9396;51.510;11.934;2022-07-23T00:08:25;5.87;;;4.20;;
18532;SDS011;9396;51.510;11.934;2022-07-23T00:10:52;7.07;;;4.00;;
18532;SDS011;9396;51.510;11.934;2022-07-23T00:13:19;7.63;;;4.73;;
18532;SDS011;9396;51.510;11.934;2022-07-23T00:15:45;6.30;;;3.70;;
18532;SDS011;9396;51.510;11.934;2022-07-23T00:18:12;4.43;;;3.80;;
18532;SDS011;9396;51.510;11.934;2022-07-23T00:20:40;6.03;;;4.00;;
18532;SDS011;9396;51.510;11.934;2022-07-23T00:23:07;4.97;;;3.97;;
18532;SDS011;9396;51.510;11.934;2022-07-23T00:25:33;5.50;;;3.87;;
18532;SDS011;9396;51.510;11.934;2022-07-23T00:28:00;9.70;;;4.20;;
18532;SDS011;9396;51.510;11.934;2022-07-23T00:30:28;5.10;;;4.00;;
18532;SDS011;9396;51.510;11.934;2022-07-23T00:32:57;5.80;;;4.20;;
18532;SDS011;9396;51.510;11.934;2022-07-23T00:35:25;7.20;;;3.87;;
18532;SDS011;9396;51.510;11.934;2022-07-23T00:37:55;8.50;;;4.50;;
18532;SDS011;9396;51.510;11.934;2022-07-23T00:40:22;5.67;;;3.83;;
18532;SDS011;9396;51.510;11.934;2022-07-23T00:42:49;6.17;;;3.80;;
18532;SDS011;9396;51.510;11.934;2022-07-23T00:45:16;4.27;;;3.80;;
18532;SDS011;9396;51.510;11.934;2022-07-23T00:47:43;6.03;;;3.60;;
18532;SDS011;9396;51.510;11.934;2022-07-23T00:50:10;4.93;;;4.17;;
18532;SDS011;9396;51.510;11.934;2022-07-23T00:52:38;4.87;;;3.90;;
18532;SDS011;9396;51.510;11.934;2022-07-23T00:55:07;6.97;;;4.07;;
18532;SDS011;9396;51.510;11.934;2022-07-23T00:57:36;6.43;;;4.07;;
18532;SDS011;9396;51.510;11.934;2022-07-23T01:00:05;4.70;;;3.90;;
18532;SDS011;9396;51.510;11.934;2022-07-23T01:02:35;8.37;;;4.77;;
18532;SDS011;9396;51.510;11.934;2022-07-23T01:05:01;6.47;;;4.00;;
18532;SDS011;9396;51.510;11.934;2022-07-23T01:07:29;7.93;;;4.57;;
18532;SDS011;9396;51.510;11.934;2022-07-23T01:09:56;8.27;;;4.80;;
18532;SDS011;9396;51.510;11.934;2022-07-23T01:12:25;6.33;;;4.30;;
18532;SDS011;9396;51.510;11.934;2022-07-23T01:14:55;5.27;;;4.07;;
18532;SDS011;9396;51.510;11.934;2022-07-23T01:17:22;6.23;;;3.93;;
18532;SDS011;9396;51.510;11.934;2022-07-23T01:19:49;7.23;;;4.47;;
18532;SDS011;9396;51.510;11.934;2022-07-23T01:22:17;5.07;;;4.57;;
18532;SDS011;9396;51.510;11.934;2022-07-23T01:24:46;6.23;;;4.17;;
18532;SDS011;9396;51.510;11.934;2022-07-23T01:27:13;7.47;;;4.70;;
18532;SDS011;9396;51.510;11.934;2022-07-23T01:29:42;6.43;;;4.50;;
18532;SDS011;9396;51.510;11.934;2022-07-23T01:32:09;5.13;;;4.20;;
18532;SDS011;9396;51.510;11.934;2022-07-23T01:34:36;6.17;;;4.43;;
18532;SDS011;9396;51.510;11.934;2022-07-23T01:37:02;5.03;;;4.10;;
18532;SDS011;9396;51.510;11.934;2022-07-23T01:39:29;5.23;;;4.73;;
18532;SDS011;9396;51.510;11.934;2022-07-23T01:41:57;4.77;;;4.30;;
18532;SDS011;9396;51.510;11.934;2022-07-23T01:44:24;5.80;;;4.63;;
18532;SDS011;9396;51.510;11.934;2022-07-23T01:46:51;7.03;;;4.50;;
18532;SDS011;9396;51.510;11.934;2022-07-23T01:49:18;5.43;;;4.40;;
18532;SDS011;9396;51.510;11.934;2022-07-23T01:51:44;6.83;;;3.80;;
18532;SDS011;9396;51.510;11.934;2022-07-23T01:54:25;5.53;;;3.97;;
18532;SDS011;9396;51.510;11.934;2022-07-23T01:56:52;6.03;;;4.10;;
18532;SDS011;9396;51.510;11.934;2022-07-23T01:59:20;5.00;;;4.47;;
18532;SDS011;9396;51.510;11.934;2022-07-23T02:01:47;5.10;;;4.60;;
18532;SDS011;9396;51.510;11.934;2022-07-23T02:04:15;4.97;;;4.10;;
18532;SDS011;9396;51.510;11.934;2022-07-23T02:06:42;7.73;;;4.60;;
18532;SDS011;9396;51.510;11.934;2022-07-23T02:09:09;9.00;;;4.80;;
18532;SDS011;9396;51.510;11.934;2022-07-23T02:11:36;6.57;;;4.97;;
18532;SDS011;9396;51.510;11.934;2022-07-23T02:14:03;5.07;;;4.20;;
18532;SDS011;9396;51.510;11.934;2022-07-23T02:16:31;7.20;;;4.90;;
18532;SDS011;9396;51.510;11.934;2022-07-23T02:18:58;12.17;;;5.33;;
18532;SDS011;9396;51.510;11.934;2022-07-23T02:21:25;9.40;;;5.00;;
18532;SDS011;9396;51.510;11.934;2022-07-23T02:23:51;5.37;;;4.77;;
18532;SDS011;9396;51.510;11.934;2022-07-23T02:26:18;7.70;;;4.20;;
18532;SDS011;9396;51.510;11.934;2022-07-23T02:28:45;5.77;;;4.10;;
18532;SDS011;9396;51.510;11.934;2022-07-23T02:31:12;6.00;;;4.10;;
18532;SDS011;9396;51.510;11.934;2022-07-23T02:33:40;6.13;;;3.93;;
18532;SDS011;9396;51.510;11.934;2022-07-23T02:36:07;4.83;;;4.33;;
18532;SDS011;9396;51.510;11.934;2022-07-23T02:38:34;6.20;;;4.07;;
18532;SDS011;9396;51.510;11.934;2022-07-23T02:41:00;6.23;;;4.23;;
18532;SDS011;9396;51.510;11.934;2022-07-23T02:43:27;6.03;;;3.83;;
18532;SDS011;9396;51.510;11.934;2022-07-23T02:45:54;5.17;;;3.73;;
18532;SDS011;9396;51.510;11.934;2022-07-23T02:48:20;4.90;;;4.20;;
18532;SDS011;9396;51.510;11.934;2022-07-23T02:50:49;6.07;;;4.03;;
18532;SDS011;9396;51.510;11.934;2022-07-23T02:53:16;10.13;;;3.70;;
18532;SDS011;9396;51.510;11.934;2022-07-23T02:55:43;7.27;;;4.03;;
18532;SDS011;9396;51.510;11.934;2022-07-23T02:58:10;4.77;;;3.70;;
18532;SDS011;9396;51.510;11.934;2022-07-23T03:00:36;5.83;;;3.93;;
18532;SDS011;9396;51.510;11.934;2022-07-23T03:03:03;7.60;;;3.73;;
18532;SDS011;9396;51.510;11.934;2022-07-23T03:05:30;4.53;;;3.60;;
18532;SDS011;9396;51.510;11.934;2022-07-23T03:07:58;5.53;;;4.03;;
18532;SDS011;9396;51.510;11.934;2022-07-23T03:10:25;6.30;;;4.07;;
18532;SDS011;9396;51.510;11.934;2022-07-23T03:12:52;4.67;;;4.13;;
18532;SDS011;9396;51.510;11.934;2022-07-23T03:15:19;6.17;;;3.53;;
18532;SDS011;9396;51.510;11.934;2022-07-23T03:17:45;8.13;;;4.10;;
18532;SDS011;9396;51.510;11.934;2022-07-23T03:20:12;10.67;;;4.17;;
18532;SDS011;9396;51.510;11.934;2022-07-23T03:22:39;5.90;;;4.23;;
18532;SDS011;9396;51.510;11.934;2022-07-23T03:25:08;4.33;;;3.73;;
18532;SDS011;9396;51.510;11.934;2022-07-23T03:27:35;9.23;;;4.60;;
18532;SDS011;9396;51.510;11.934;2022-07-23T03:30:02;4.43;;;3.80;;
18532;SDS011;9396;51.510;11.934;2022-07-23T03:32:29;7.33;;;4.10;;
18532;SDS011;9396;51.510;11.934;2022-07-23T03:34:56;5.53;;;4.00;;
18532;SDS011;9396;51.510;11.934;2022-07-23T03:37:23;6.23;;;3.93;;
18532;SDS011;9396;51.510;11.934;2022-07-23T03:39:50;7.50;;;4.63;;
18532;SDS011;9396;51.510;11.934;2022-07-23T03:42:18;9.03;;;4.30;;
18532;SDS011;9396;51.510;11.934;2022-07-23T03:44:44;8.53;;;5.00;;
18532;SDS011;9396;51.510;11.934;2022-07-23T03:47:11;4.90;;;3.93;;
18532;SDS011;9396;51.510;11.934;2022-07-23T03:49:38;7.00;;;5.00;;
18532;SDS011;9396;51.510;11.934;2022-07-23T03:52:05;7.93;;;5.40;;
18532;SDS011;9396;51.510;11.934;2022-07-23T03:54:32;9.63;;;4.73;;
18532;SDS011;9396;51.510;11.934;2022-07-23T03:56:58;8.10;;;5.53;;
18532;SDS011;9396;51.510;11.934;2022-07-23T03:59:26;8.33;;;4.83;;
18532;SDS011;9396;51.510;11.934;2022-07-23T04:01:53;12.77;;;4.40;;
18532;SDS011;9396;51.510;11.934;2022-07-23T04:04:20;8.80;;;5.90;;
18532;SDS011;9396;51.510;11.934;2022-07-23T04:06:47;10.70;;;6.47;;
18532;SDS011;9396;51.510;11.934;2022-07-23T04:09:13;11.77;;;7.07;;
18532;SDS011;9396;51.510;11.934;2022-07-23T04:11:40;15.33;;;9.03;;
18532;SDS011;9396;51.510;11.934;2022-07-23T04:14:07;13.80;;;8.87;;
18532;SDS011;9396;51.510;11.934;2022-07-23T04:16:35;13.13;;;9.00;;
18532;SDS011;9396;51.510;11.934;2022-07-23T04:19:01;14.17;;;9.10;;
18532;SDS011;9396;51.510;11.934;2022-07-23T04:21:29;11.60;;;9.37;;
18532;SDS011;9396;51.510;11.934;2022-07-23T04:23:56;10.87;;;8.97;;
18532;SDS011;9396;51.510;11.934;2022-07-23T04:26:22;9.33;;;7.87;;
18532;SDS011;9396;51.510;11.934;2022-07-23T04:28:49;12.37;;;8.67;;
18532;SDS011;9396;51.510;11.934;2022-07-23T04:31:16;10.93;;;8.57;;
18532;SDS011;9396;51.510;11.934;2022-07-23T04:33:44;11.43;;;8.43;;
18532;SDS011;9396;51.510;11.934;2022-07-23T04:36:10;13.47;;;7.70;;
18532;SDS011;9396;51.510;11.934;2022-07-23T04:38:37;12.30;;;7.80;;
18532;SDS011;9396;51.510;11.934;2022-07-23T04:41:04;11.43;;;7.63;;
18532;SDS011;9396;51.510;11.934;2022-07-23T04:43:31;10.37;;;7.37;;
18532;SDS011;9396;51.510;11.934;2022-07-23T04:45:57;8.87;;;7.20;;
18532;SDS011;9396;51.510;11.934;2022-07-23T04:48:24;10.77;;;7.20;;
18532;SDS011;9396;51.510;11.934;2022-07-23T04:50:52;8.57;;;7.13;;
18532;SDS011;9396;51.510;11.934;2022-07-23T04:53:19;12.47;;;7.67;;
18532;SDS011;9396;51.510;11.934;2022-07-23T04:55:45;12.43;;;7.90;;
18532;SDS011;9396;51.510;11.934;2022-07-23T04:58:12;11.10;;;7.70;;
18532;SDS011;9396;51.510;11.934;2022-07-23T05:00:39;8.20;;;7.23;;
18532;SDS011;9396;51.510;11.934;2022-07-23T05:03:06;9.83;;;7.40;;
18532;SDS011;9396;51.510;11.934;2022-07-23T05:05:32;11.00;;;6.97;;
18532;SDS011;9396;51.510;11.934;2022-07-23T05:08:00;13.10;;;7.57;;
18532;SDS011;9396;51.510;11.934;2022-07-23T05:10:27;9.43;;;7.10;;
18532;SDS011;9396;51.510;11.934;2022-07-23T05:12:54;9.03;;;6.97;;
18532;SDS011;9396;51.510;11.934;2022-07-23T05:15:20;10.30;;;7.20;;
18532;SDS011;9396;51.510;11.934;2022-07-23T05:17:47;12.57;;;6.87;;
18532;SDS011;9396;51.510;11.934;2022-07-23T05:20:14;10.43;;;7.57;;
18532;SDS011;9396;51.510;11.934;2022-07-23T05:22:42;9.73;;;6.90;;
18532;SDS011;9396;51.510;11.934;2022-07-23T05:25:10;14.47;;;7.40;;
18532;SDS011;9396;51.510;11.934;2022-07-23T05:27:37;12.80;;;7.57;;
18532;SDS011;9396;51.510;11.934;2022-07-23T05:30:04;7.67;;;6.67;;
18532;SDS011;9396;51.510;11.934;2022-07-23T05:32:31;11.33;;;7.80;;
18532;SDS011;9396;51.510;11.934;2022-07-23T05:34:58;10.43;;;7.40;;
18532;SDS011;9396;51.510;11.934;2022-07-23T05:37:25;8.83;;;7.37;;
18532;SDS011;9396;51.510;11.934;2022-07-23T05:39:51;9.67;;;7.40;;
18532;SDS011;9396;51.510;11.934;2022-07-23T05:42:19;11.33;;;7.63;;
18532;SDS011;9396;51.510;11.934;2022-07-23T05:44:46;8.67;;;7.37;;
18532;SDS011;9396;51.510;11.934;2022-07-23T05:47:13;11.60;;;7.43;;
18532;SDS011;9396;51.510;11.934;2022-07-23T05:49:40;11.73;;;7.27;;
18532;SDS011;9396;51.510;11.934;2022-07-23T05:52:06;10.57;;;7.10;;
18532;SDS011;9396;51.510;11.934;2022-07-23T05:54:34;9.70;;;7.40;;
18532;SDS011;9396;51.510;11.934;2022-07-23T05:57:01;9.40;;;6.90;;
18532;SDS011;9396;51.510;11.934;2022-07-23T05:59:29;11.77;;;6.43;;
18532;SDS011;9396;51.510;11.934;2022-07-23T06:01:56;9.10;;;6.30;;
18532;SDS011;9396;51.510;11.934;2022-07-23T06:04:23;8.83;;;7.10;;
18532;SDS011;9396;51.510;11.934;2022-07-23T06:06:50;7.83;;;6.67;;
18532;SDS011;9396;51.510;11.934;2022-07-23T06:09:17;6.93;;;6.23;;
18532;SDS011;9396;51.510;11.934;2022-07-23T06:11:44;9.17;;;6.87;;
18532;SDS011;9396;51.510;11.934;2022-07-23T06:14:11;7.50;;;6.47;;
18532;SDS011;9396;51.510;11.934;2022-07-23T06:16:39;11.80;;;7.13;;
18532;SDS011;9396;51.510;11.934;2022-07-23T06:19:06;10.27;;;6.60;;
18532;SDS011;9396;51.510;11.934;2022-07-23T06:21:32;7.67;;;6.33;;
18532;SDS011;9396;51.510;11.934;2022-07-23T06:23:59;9.30;;;7.03;;
18532;SDS011;9396;51.510;11.934;2022-07-23T06:26:26;13.47;;;7.63;;
18532;SDS011;9396;51.510;11.934;2022-07-23T06:28:53;9.43;;;7.60;;
18532;SDS011;9396;51.510;11.934;2022-07-23T06:31:19;10.23;;;7.30;;
18532;SDS011;9396;51.510;11.934;2022-07-23T06:33:47;8.83;;;7.40;;
18532;SDS011;9396;51.510;11.934;2022-07-23T06:36:15;11.37;;;8.70;;
18532;SDS011;9396;51.510;11.934;2022-07-23T06:38:41;9.17;;;8.27;;
18532;SDS011;9396;51.510;11.934;2022-07-23T06:41:08;13.50;;;8.63;;
18532;SDS011;9396;51.510;11.934;2022-07-23T06:43:35;11.80;;;8.17;;
18532;SDS011;9396;51.510;11.934;2022-07-23T06:46:01;9.40;;;8.43;;
18532;SDS011;9396;51.510;11.934;2022-07-23T06:48:28;10.03;;;8.57;;
18532;SDS011;9396;51.510;11.934;2022-07-23T06:50:56;13.23;;;9.43;;
18532;SDS011;9396;51.510;11.934;2022-07-23T06:53:23;13.13;;;9.73;;
18532;SDS011;9396;51.510;11.934;2022-07-23T06:55:50;14.57;;;9.87;;
18532;SDS011;9396;51.510;11.934;2022-07-23T06:58:16;11.97;;;9.50;;
18532;SDS011;9396;51.510;11.934;2022-07-23T07:00:44;11.63;;;9.30;;
18532;SDS011;9396;51.510;11.934;2022-07-23T07:03:11;11.77;;;9.47;;
18532;SDS011;9396;51.510;11.934;2022-07-23T07:05:37;10.77;;;9.10;;
18532;SDS011;9396;51.510;11.934;2022-07-23T07:08:06;11.37;;;8.67;;
18532;SDS011;9396;51.510;11.934;2022-07-23T07:10:32;11.70;;;9.27;;
18532;SDS011;9396;51.510;11.934;2022-07-23T07:12:59;10.73;;;8.70;;
18532;SDS011;9396;51.510;11.934;2022-07-23T07:15:26;10.80;;;8.63;;
18532;SDS011;9396;51.510;11.934;2022-07-23T07:17:53;12.43;;;8.73;;
18532;SDS011;9396;51.510;11.934;2022-07-23T07:20:19;12.03;;;9.33;;
18532;SDS011;9396;51.510;11.934;2022-07-23T07:22:48;11.33;;;8.87;;
18532;SDS011;9396;51.510;11.934;2022-07-23T07:25:16;13.33;;;8.70;;
18532;SDS011;9396;51.510;11.934;2022-07-23T07:27:43;12.57;;;9.93;;
18532;SDS011;9396;51.510;11.934;2022-07-23T07:30:10;12.07;;;9.97;;
18532;SDS011;9396;51.510;11.934;2022-07-23T07:32:38;11.77;;;9.67;;
18532;SDS011;9396;51.510;11.934;2022-07-23T07:35:05;12.70;;;10.23;;
18532;SDS011;9396;51.510;11.934;2022-07-23T07:37:33;13.93;;;9.63;;
18532;SDS011;9396;51.510;11.934;2022-07-23T07:40:00;10.63;;;9.30;;
18532;SDS011;9396;51.510;11.934;2022-07-23T07:42:28;13.43;;;9.70;;
18532;SDS011;9396;51.510;11.934;2022-07-23T07:44:57;11.73;;;10.40;;
18532;SDS011;9396;51.510;11.934;2022-07-23T07:47:24;11.83;;;9.70;;
18532;SDS011;9396;51.510;11.934;2022-07-23T07:49:50;11.53;;;10.20;;
18532;SDS011;9396;51.510;11.934;2022-07-23T07:52:17;13.90;;;10.00;;
18532;SDS011;9396;51.510;11.934;2022-07-23T07:54:44;11.37;;;9.37;;
18532;SDS011;9396;51.510;11.934;2022-07-23T07:57:10;14.10;;;10.40;;
18532;SDS011;9396;51.510;11.934;2022-07-23T07:59:38;11.37;;;10.23;;
18532;SDS011;9396;51.510;11.934;2022-07-23T08:02:05;12.30;;;10.17;;
18532;SDS011;9396;51.510;11.934;2022-07-23T08:04:32;11.40;;;9.83;;
18532;SDS011;9396;51.510;11.934;2022-07-23T08:06:59;11.80;;;9.90;;
18532;SDS011;9396;51.510;11.934;2022-07-23T08:09:26;15.17;;;10.63;;
18532;SDS011;9396;51.510;11.934;2022-07-23T08:11:52;10.70;;;9.60;;
18532;SDS011;9396;51.510;11.934;2022-07-23T08:14:19;12.23;;;10.17;;
18532;SDS011;9396;51.510;11.934;2022-07-23T08:16:47;11.77;;;9.30;;
18532;SDS011;9396;51.510;11.934;2022-07-23T08:19:14;20.90;;;9.10;;
18532;SDS011;9396;51.510;11.934;2022-07-23T08:21:41;9.87;;;8.60;;
18532;SDS011;9396;51.510;11.934;2022-07-23T08:24:07;10.60;;;8.80;;
18532;SDS011;9396;51.510;11.934;2022-07-23T08:26:34;11.47;;;8.77;;
18532;SDS011;9396;51.510;11.934;2022-07-23T08:29:01;9.47;;;8.40;;
18532;SDS011;9396;51.510;11.934;2022-07-23T08:31:27;10.53;;;8.10;;
18532;SDS011;9396;51.510;11.934;2022-07-23T08:33:55;10.43;;;8.67;;
18532;SDS011;9396;51.510;11.934;2022-07-23T08:36:22;10.17;;;8.50;;
18532;SDS011;9396;51.510;11.934;2022-07-23T08:38:49;14.03;;;9.40;;
18532;SDS011;9396;51.510;11.934;2022-07-23T08:41:15;10.90;;;9.30;;
18532;SDS011;9396;51.510;11.934;2022-07-23T08:43:42;10.60;;;9.13;;
18532;SDS011;9396;51.510;11.934;2022-07-23T08:46:10;12.73;;;8.83;;
18532;SDS011;9396;51.510;11.934;2022-07-23T08:48:39;10.90;;;9.30;;
18532;SDS011;9396;51.510;11.934;2022-07-23T08:51:07;16.67;;;11.73;;
18532;SDS011;9396;51.510;11.934;2022-07-23T08:53:35;13.60;;;11.40;;
18532;SDS011;9396;51.510;11.934;2022-07-23T08:56:04;13.10;;;11.23;;
18532;SDS011;9396;51.510;11.934;2022-07-23T08:58:31;15.57;;;11.37;;
18532;SDS011;9396;51.510;11.934;2022-07-23T09:00:58;13.73;;;12.27;;
18532;SDS011;9396;51.510;11.934;2022-07-23T09:03:26;18.30;;;13.70;;
18532;SDS011;9396;51.510;11.934;2022-07-23T09:05:54;17.17;;;13.77;;
18532;SDS011;9396;51.510;11.934;2022-07-23T09:08:24;16.70;;;13.60;;
18532;SDS011;9396;51.510;11.934;2022-07-23T09:10:52;18.27;;;14.23;;
18532;SDS011;9396;51.510;11.934;2022-07-23T09:13:34;16.03;;;13.83;;
18532;SDS011;9396;51.510;11.934;2022-07-23T09:16:02;16.13;;;13.73;;
18532;SDS011;9396;51.510;11.934;2022-07-23T09:18:32;16.97;;;14.13;;
18532;SDS011;9396;51.510;11.934;2022-07-23T09:21:06;17.67;;;15.13;;
18532;SDS011;9396;51.510;11.934;2022-07-23T09:23:43;19.90;;;15.87;;
18532;SDS011;9396;51.510;11.934;2022-07-23T09:26:21;21.60;;;17.53;;
18532;SDS011;9396;51.510;11.934;2022-07-23T09:28:51;19.70;;;16.47;;
18532;SDS011;9396;51.510;11.934;2022-07-23T09:31:22;25.87;;;18.37;;
18532;SDS011;9396;51.510;11.934;2022-07-23T09:33:50;24.43;;;18.50;;
18532;SDS011;9396;51.510;11.934;2022-07-23T09:36:26;20.27;;;18.10;;
18532;SDS011;9396;51.510;11.934;2022-07-23T09:38:56;21.57;;;18.33;;
18532;SDS011;9396;51.510;11.934;2022-07-23T09:41:22;19.97;;;17.57;;
18532;SDS011;9396;51.510;11.934;2022-07-23T09:43:54;21.57;;;17.63;;
18532;SDS011;9396;51.510;11.934;2022-07-23T09:46:22;20.40;;;16.10;;
18532;SDS011;9396;51.510;11.934;2022-07-23T09:48:50;15.83;;;13.80;;
18532;SDS011;9396;51.510;11.934;2022-07-23T09:51:18;18.60;;;10.83;;
18532;SDS011;9396;51.510;11.934;2022-07-23T09:53:49;12.80;;;10.53;;
18532;SDS011;9396;51.510;11.934;2022-07-23T09:56:17;14.13;;;10.27;;
18532;SDS011;9396;51.510;11.934;2022-07-23T09:58:46;13.63;;;9.43;;
18532;SDS011;9396;51.510;11.934;2022-07-23T10:01:17;12.97;;;10.20;;
18532;SDS011;9396;51.510;11.934;2022-07-23T10:03:46;13.83;;;9.23;;
18532;SDS011;9396;51.510;11.934;2022-07-23T10:06:13;14.63;;;10.17;;
18532;SDS011;9396;51.510;11.934;2022-07-23T10:08:40;12.03;;;9.77;;
18532;SDS011;9396;51.510;11.934;2022-07-23T10:11:09;11.30;;;9.63;;
18532;SDS011;9396;51.510;11.934;2022-07-23T10:13:40;11.10;;;9.17;;
18532;SDS011;9396;51.510;11.934;2022-07-23T10:16:20;13.87;;;11.17;;
18532;SDS011;9396;51.510;11.934;2022-07-23T10:18:48;15.97;;;11.10;;
18532;SDS011;9396;51.510;11.934;2022-07-23T10:21:16;12.10;;;10.23;;
18532;SDS011;9396;51.510;11.934;2022-07-23T10:23:52;14.10;;;10.70;;
18532;SDS011;9396;51.510;11.934;2022-07-23T10:26:32;12.33;;;11.03;;
18532;SDS011;9396;51.510;11.934;2022-07-23T10:29:10;14.80;;;12.07;;
18532;SDS011;9396;51.510;11.934;2022-07-23T10:31:50;14.37;;;12.50;;
18532;SDS011;9396;51.510;11.934;2022-07-23T10:34:25;13.93;;;12.53;;
18532;SDS011;9396;51.510;11.934;2022-07-23T10:37:01;15.87;;;12.53;;
18532;SDS011;9396;51.510;11.934;2022-07-23T10:39:40;18.73;;;12.87;;
18532;SDS011;9396;51.510;11.934;2022-07-23T10:42:07;15.07;;;12.87;;
18532;SDS011;9396;51.510;11.934;2022-07-23T10:44:40;15.63;;;11.93;;
18532;SDS011;9396;51.510;11.934;2022-07-23T10:47:09;14.40;;;11.23;;
18532;SDS011;9396;51.510;11.934;2022-07-23T10:49:46;14.57;;;12.57;;
18532;SDS011;9396;51.510;11.934;2022-07-23T10:52:16;14.80;;;11.50;;
18532;SDS011;9396;51.510;11.934;2022-07-23T10:54:51;16.93;;;12.63;;
18532;SDS011;9396;51.510;11.934;2022-07-23T10:57:20;15.80;;;12.07;;
18532;SDS011;9396;51.510;11.934;2022-07-23T11:02:49;11.30;;;10.07;;
18532;SDS011;9396;51.510;11.934;2022-07-23T11:05:17;11.73;;;10.63;;
18532;SDS011;9396;51.510;11.934;2022-07-23T11:10:42;13.07;;;10.67;;
18532;SDS011;9396;51.510;11.934;2022-07-23T11:16:12;10.33;;;9.03;;
18532;SDS011;9396;51.510;11.934;2022-07-23T11:18:53;11.90;;;9.70;;
18532;SDS011;9396;51.510;11.934;2022-07-23T11:24:22;12.60;;;9.27;;
18532;SDS011;9396;51.510;11.934;2022-07-23T11:26:52;15.07;;;10.47;;
18532;SDS011;9396;51.510;11.934;2022-07-23T11:29:39;8.93;;;8.03;;
18532;SDS011;9396;51.510;11.934;2022-07-23T11:32:11;11.60;;;10.00;;
18532;SDS011;9396;51.510;11.934;2022-07-23T11:34:45;12.37;;;9.93;;
18532;SDS011;9396;51.510;11.934;2022-07-23T11:37:26;10.40;;;9.30;;
18532;SDS011;9396;51.510;11.934;2022-07-23T11:39:54;10.57;;;9.53;;
18532;SDS011;9396;51.510;11.934;2022-07-23T11:42:21;10.80;;;9.70;;
18532;SDS011;9396;51.510;11.934;2022-07-23T11:44:49;11.07;;;9.93;;
18532;SDS011;9396;51.510;11.934;2022-07-23T11:47:21;8.93;;;7.90;;
18532;SDS011;9396;51.510;11.934;2022-07-23T11:49:51;14.40;;;9.27;;
18532;SDS011;9396;51.510;11.934;2022-07-23T11:52:18;11.87;;;9.50;;
18532;SDS011;9396;51.510;11.934;2022-07-23T11:54:46;12.03;;;10.00;;
18532;SDS011;9396;51.510;11.934;2022-07-23T11:57:17;12.63;;;10.10;;
18532;SDS011;9396;51.510;11.934;2022-07-23T11:59:45;9.20;;;8.30;;
18532;SDS011;9396;51.510;11.934;2022-07-23T12:02:13;10.97;;;9.40;;
18532;SDS011;9396;51.510;11.934;2022-07-23T12:04:42;13.40;;;9.70;;
18532;SDS011;9396;51.510;11.934;2022-07-23T12:07:22;13.07;;;8.97;;
18532;SDS011;9396;51.510;11.934;2022-07-23T12:09:50;12.07;;;9.10;;
18532;SDS011;9396;51.510;11.934;2022-07-23T12:12:17;10.63;;;9.53;;
18532;SDS011;9396;51.510;11.934;2022-07-23T12:14:47;12.20;;;10.30;;
18532;SDS011;9396;51.510;11.934;2022-07-23T12:17:15;12.33;;;9.93;;
18532;SDS011;9396;51.510;11.934;2022-07-23T12:19:43;9.93;;;8.83;;
18532;SDS011;9396;51.510;11.934;2022-07-23T12:22:10;9.67;;;8.77;;
18532;SDS011;9396;51.510;11.934;2022-07-23T12:24:58;9.40;;;8.40;;
18532;SDS011;9396;51.510;11.934;2022-07-23T12:27:26;11.30;;;9.27;;
18532;SDS011;9396;51.510;11.934;2022-07-23T12:29:53;9.53;;;8.17;;
18532;SDS011;9396;51.510;11.934;2022-07-23T12:32:20;8.90;;;8.03;;
18532;SDS011;9396;51.510;11.934;2022-07-23T12:34:50;12.40;;;9.20;;
18532;SDS011;9396;51.510;11.934;2022-07-23T12:37:27;11.17;;;8.37;;
18532;SDS011;9396;51.510;11.934;2022-07-23T12:39:55;9.77;;;8.63;;
18532;SDS011;9396;51.510;11.934;2022-07-23T12:42:22;9.87;;;8.87;;
18532;SDS011;9396;51.510;11.934;2022-07-23T12:45:08;12.50;;;9.50;;
18532;SDS011;9396;51.510;11.934;2022-07-23T12:47:53;9.27;;;8.30;;
18532;SDS011;9396;51.510;11.934;2022-07-23T12:50:33;9.60;;;8.60;;
18532;SDS011;9396;51.510;11.934;2022-07-23T12:53:05;12.13;;;9.60;;
18532;SDS011;9396;51.510;11.934;2022-07-23T12:55:33;9.13;;;8.17;;
18532;SDS011;9396;51.510;11.934;2022-07-23T12:58:10;9.37;;;8.33;;
18532;SDS011;9396;51.510;11.934;2022-07-23T13:00:51;9.70;;;8.07;;
18532;SDS011;9396;51.510;11.934;2022-07-23T13:03:25;9.40;;;8.43;;
18532;SDS011;9396;51.510;11.934;2022-07-23T13:05:56;13.40;;;9.60;;
18532;SDS011;9396;51.510;11.934;2022-07-23T13:08:24;9.83;;;8.37;;
18532;SDS011;9396;51.510;11.934;2022-07-23T13:10:53;10.40;;;9.30;;
18532;SDS011;9396;51.510;11.934;2022-07-23T13:13:20;11.23;;;10.03;;
18532;SDS011;9396;51.510;11.934;2022-07-23T13:15:48;9.57;;;8.63;;
18532;SDS011;9396;51.510;11.934;2022-07-23T13:18:14;10.30;;;9.30;;
18532;SDS011;9396;51.510;11.934;2022-07-23T13:20:42;10.43;;;8.83;;
18532;SDS011;9396;51.510;11.934;2022-07-23T13:23:11;13.23;;;11.67;;
18532;SDS011;9396;51.510;11.934;2022-07-23T13:25:38;12.10;;;10.73;;
18532;SDS011;9396;51.510;11.934;2022-07-23T13:28:04;12.87;;;10.57;;
18532;SDS011;9396;51.510;11.934;2022-07-23T13:30:31;12.10;;;10.40;;
18532;SDS011;9396;51.510;11.934;2022-07-23T13:32:58;11.33;;;9.03;;
18532;SDS011;9396;51.510;11.934;2022-07-23T13:35:25;10.97;;;9.87;;
18532;SDS011;9396;51.510;11.934;2022-07-23T13:37:52;11.97;;;10.67;;
18532;SDS011;9396;51.510;11.934;2022-07-23T13:40:20;14.03;;;10.20;;
18532;SDS011;9396;51.510;11.934;2022-07-23T13:42:46;11.57;;;10.37;;
18532;SDS011;9396;51.510;11.934;2022-07-23T13:45:13;12.07;;;10.77;;
18532;SDS011;9396;51.510;11.934;2022-07-23T13:47:40;11.37;;;9.93;;
18532;SDS011;9396;51.510;11.934;2022-07-23T13:50:07;9.13;;;8.20;;
18532;SDS011;9396;51.510;11.934;2022-07-23T13:52:34;9.63;;;8.63;;
18532;SDS011;9396;51.510;11.934;2022-07-23T13:55:01;9.10;;;7.97;;
18532;SDS011;9396;51.510;11.934;2022-07-23T13:57:30;11.27;;;8.40;;
18532;SDS011;9396;51.510;11.934;2022-07-23T13:59:57;10.57;;;9.50;;
18532;SDS011;9396;51.510;11.934;2022-07-23T14:02:24;8.93;;;8.03;;
18532;SDS011;9396;51.510;11.934;2022-07-23T14:04:51;10.63;;;9.37;;
18532;SDS011;9396;51.510;11.934;2022-07-23T14:07:19;12.33;;;9.23;;
18532;SDS011;9396;51.510;11.934;2022-07-23T14:09:46;8.87;;;7.97;;
18532;SDS011;9396;51.510;11.934;2022-07-23T14:12:13;10.93;;;9.13;;
18532;SDS011;9396;51.510;11.934;2022-07-23T14:14:41;11.13;;;8.90;;
18532;SDS011;9396;51.510;11.934;2022-07-23T14:17:08;11.10;;;8.43;;
18532;SDS011;9396;51.510;11.934;2022-07-23T14:19:35;10.40;;;8.73;;
18532;SDS011;9396;51.510;11.934;2022-07-23T14:22:02;9.67;;;8.67;;
18532;SDS011;9396;51.510;11.934;2022-07-23T14:24:28;10.03;;;8.30;;
18532;SDS011;9396;51.510;11.934;2022-07-23T14:26:55;10.20;;;9.10;;
18532;SDS011;9396;51.510;11.934;2022-07-23T14:29:22;9.13;;;8.23;;
18532;SDS011;9396;51.510;11.934;2022-07-23T14:31:50;9.37;;;8.47;;
18532;SDS011;9396;51.510;11.934;2022-07-23T14:34:16;9.63;;;8.73;;
18532;SDS011;9396;51.510;11.934;2022-07-23T14:36:43;9.83;;;8.83;;
18532;SDS011;9396;51.510;11.934;2022-07-23T14:39:10;9.47;;;8.43;;
18532;SDS011;9396;51.510;11.934;2022-07-23T14:41:38;8.27;;;7.47;;
18532;SDS011;9396;51.510;11.934;2022-07-23T14:44:07;9.93;;;8.87;;
18532;SDS011;9396;51.510;11.934;2022-07-23T14:46:33;12.70;;;7.13;;
18532;SDS011;9396;51.510;11.934;2022-07-23T14:49:02;7.37;;;6.77;;
18532;SDS011;9396;51.510;11.934;2022-07-23T14:51:29;8.53;;;6.93;;
18532;SDS011;9396;51.510;11.934;2022-07-23T14:53:56;8.33;;;7.30;;
18532;SDS011;9396;51.510;11.934;2022-07-23T14:56:23;10.00;;;6.90;;